Time;durP1;ratioP1;P1;durP2;ratioP2;P2;SDS_P1;SDS_P2;PMS_P1;PMS_P2;Temp;Humidity;BMP_temperature;BMP_pressure;BME280_temperature;BME280_humidity;BME280_pressure;Samples;Min_cycle;Max_cycle;Signal;HPM_P1;HPM_P2
2023/09/03 00:00:22;;;;;;;;;;;;;;;15.55;100.00;102481.63;5003170;28;19952;-58
2023/09/03 00:02:47;;;;;;;;;;;;;;;15.52;100.00;102483.28;4990945;28;19948;-58
2023/09/03 00:05:13;;;;;;;;;;;;;;;15.46;100.00;102486.63;4994782;28;19926;-58
2023/09/03 00:07:38;;;;;;;;;;;;;;;15.42;100.00;102482.09;4998775;28;19902;-58
2023/09/03 00:10:03;;;;;;;;;;;;;;;15.36;100.00;102484.56;5004225;28;20140;-58
2023/09/03 00:12:28;;;;;;;;;;;;;;;15.27;100.00;102474.66;4988572;28;19910;-58
2023/09/03 00:14:54;;;;;;;;;;;;;;;15.17;100.00;102478.75;4993229;28;20251;-58
2023/09/03 00:17:19;;;;;;;;;;;;;;;15.07;100.00;102484.53;5000617;28;20140;-58
2023/09/03 00:19:44;;;;;;;;;;;;;;;14.99;100.00;102473.81;5002378;28;20098;-58
2023/09/03 00:22:10;;;;;;;;;;;;;;;14.93;100.00;102465.72;4975152;28;19906;-58
2023/09/03 00:24:35;;;;;;;;;;;;;;;14.92;100.00;102469.22;4996664;28;19902;-58
2023/09/03 00:27:00;;;;;;;;;;;;;;;14.93;100.00;102476.22;5007384;28;19928;-58
2023/09/03 00:29:26;;;;;;;;;;;;;;;14.94;100.00;102484.16;4985655;28;20091;-58
2023/09/03 00:31:51;;;;;;;;;;;;;;;14.93;100.00;102481.47;4998394;28;20157;-58
2023/09/03 00:34:17;;;;;;;;;;;;;;;14.89;100.00;102483.13;5021229;28;19909;-58
2023/09/03 00:36:42;;;;;;;;;;;;;;;14.89;100.00;102492.75;5022688;28;19956;-58
2023/09/03 00:39:07;;;;;;;;;;;;;;;14.90;100.00;102494.50;5018497;28;20195;-58
2023/09/03 00:41:32;;;;;;;;;;;;;;;14.89;100.00;102487.50;5015469;28;19972;-58
2023/09/03 00:43:57;;;;;;;;;;;;;;;14.89;100.00;102495.38;5020460;28;20032;-58
2023/09/03 00:46:23;;;;;;;;;;;;;;;14.89;100.00;102500.63;5012769;28;19949;-58
2023/09/03 00:48:49;;;;;;;;;;;;;;;14.87;100.00;102497.91;5020375;28;20198;-58
2023/09/03 00:51:15;;;;;;;;;;;;;;;14.85;100.00;102496.97;5014005;28;19964;-58
2023/09/03 00:53:43;;;;;;;;;;;;;;;14.83;100.00;102501.31;5024188;28;19906;-58
2023/09/03 00:56:10;;;;;;;;;;;;;;;14.84;100.00;102504.81;5024219;28;19937;-58
2023/09/03 00:58:36;;;;;;;;;;;;;;;14.82;100.00;102506.50;5024479;28;20051;-58
2023/09/03 01:01:01;;;;;;;;;;;;;;;14.80;100.00;102502.91;5023851;28;20150;-58
2023/09/03 01:03:26;;;;;;;;;;;;;;;14.77;100.00;102502.00;5023666;28;19905;-58
2023/09/03 01:05:52;;;;;;;;;;;;;;;14.76;100.00;102508.06;5024278;28;19928;-58
2023/09/03 01:08:17;;;;;;;;;;;;;;;14.73;100.00;102513.22;5023954;28;19905;-58
2023/09/03 01:10:50;;;;;;;;;;;;;;;14.72;100.00;102518.44;5023447;28;19901;-58
2023/09/03 01:13:24;;;;;;;;;;;;;;;14.70;100.00;102518.38;5023712;28;19910;-58
2023/09/03 01:15:50;;;;;;;;;;;;;;;14.69;100.00;102507.84;5024166;28;20127;-58
2023/09/03 01:18:17;;;;;;;;;;;;;;;14.69;100.00;102502.59;5024074;28;20012;-58
2023/09/03 01:20:44;;;;;;;;;;;;;;;14.64;100.00;102505.03;5023558;28;19902;-58
2023/09/03 01:23:09;;;;;;;;;;;;;;;14.61;100.00;102504.91;5023941;28;19961;-58
2023/09/03 01:25:53;;;;;;;;;;;;;;;14.57;100.00;102503.91;5007879;28;20136;-58
2023/09/03 01:28:25;;;;;;;;;;;;;;;14.49;100.00;102501.88;5012033;28;19906;-58
2023/09/03 01:30:54;;;;;;;;;;;;;;;14.47;100.00;102499.19;5010479;28;19908;-58
2023/09/03 01:33:20;;;;;;;;;;;;;;;14.48;100.00;102506.22;5021709;28;20143;-58
2023/09/03 01:35:47;;;;;;;;;;;;;;;14.50;100.00;102504.53;5023612;28;19912;-58
2023/09/03 01:38:12;;;;;;;;;;;;;;;14.50;100.00;102503.66;5021994;28;19901;-58
2023/09/03 01:40:38;;;;;;;;;;;;;;;14.50;100.00;102512.41;5020901;28;19936;-58
2023/09/03 01:43:03;;;;;;;;;;;;;;;14.52;100.00;102501.97;5021023;28;19901;-58
2023/09/03 01:45:35;;;;;;;;;;;;;;;14.53;100.00;102499.41;5010274;28;19905;-58
2023/09/03 01:48:08;;;;;;;;;;;;;;;14.55;100.00;102500.31;5012878;28;19909;-57
2023/09/03 01:50:46;;;;;;;;;;;;;;;14.55;100.00;102502.06;5016491;28;19924;-58
2023/09/03 01:53:17;;;;;;;;;;;;;;;14.54;100.00;102497.66;5017467;28;19910;-58
2023/09/03 01:55:47;;;;;;;;;;;;;;;14.55;100.00;102494.19;5023172;28;19963;-58
2023/09/03 01:58:12;;;;;;;;;;;;;;;14.52;100.00;102492.38;5007928;28;19912;-58
2023/09/03 02:00:37;;;;;;;;;;;;;;;14.49;100.00;102501.88;5020464;28;19929;-58
2023/09/03 02:03:03;;;;;;;;;;;;;;;14.42;100.00;102506.00;5020523;28;20147;-58
2023/09/03 02:05:29;;;;;;;;;;;;;;;14.41;100.00;102505.13;5020553;28;20079;-58
2023/09/03 02:07:54;;;;;;;;;;;;;;;14.35;100.00;102499.69;5017482;28;19948;-58
2023/09/03 02:10:19;;;;;;;;;;;;;;;14.33;100.00;102509.19;5013799;28;20051;-58
2023/09/03 02:12:44;;;;;;;;;;;;;;;14.33;100.00;102519.69;5016323;28;20087;-58
2023/09/03 02:15:10;;;;;;;;;;;;;;;14.34;100.00;102524.09;5020266;28;19925;-58
2023/09/03 02:17:35;;;;;;;;;;;;;;;14.32;100.00;102531.00;5007509;28;19913;-58
2023/09/03 02:20:00;;;;;;;;;;;;;;;14.27;100.00;102536.09;5018751;28;19901;-58
2023/09/03 02:22:25;;;;;;;;;;;;;;;14.23;100.00;102538.56;5020376;28;19912;-58
2023/09/03 02:24:51;;;;;;;;;;;;;;;14.18;100.00;102540.09;5019930;28;19918;-58
2023/09/03 02:27:16;;;;;;;;;;;;;;;14.16;100.00;102544.41;5017571;28;19943;-58
2023/09/03 02:29:41;;;;;;;;;;;;;;;14.12;100.00;102537.28;5021185;28;20136;-58
2023/09/03 02:32:06;;;;;;;;;;;;;;;14.10;100.00;102545.09;5019881;28;19940;-58
2023/09/03 02:34:32;;;;;;;;;;;;;;;14.12;100.00;102543.44;5016200;28;19980;-58
2023/09/03 02:36:57;;;;;;;;;;;;;;;14.14;100.00;102559.22;5007085;28;19902;-58
2023/09/03 02:39:22;;;;;;;;;;;;;;;14.12;100.00;102553.91;5020257;28;19999;-58
2023/09/03 02:41:48;;;;;;;;;;;;;;;14.11;100.00;102541.63;5027065;28;19911;-58
2023/09/03 02:44:13;;;;;;;;;;;;;;;14.09;100.00;102533.72;5023694;28;20179;-58
2023/09/03 02:46:38;;;;;;;;;;;;;;;14.08;100.00;102526.69;5006893;28;19965;-58
2023/09/03 02:49:03;;;;;;;;;;;;;;;14.06;100.00;102524.84;5015482;28;19910;-58
2023/09/03 02:51:28;;;;;;;;;;;;;;;14.01;100.00;102522.06;5018259;28;20139;-57
2023/09/03 02:53:56;;;;;;;;;;;;;;;14.01;100.00;102521.19;5021303;28;19906;-58
2023/09/03 02:56:22;;;;;;;;;;;;;;;13.98;100.00;102516.69;5006885;28;19902;-58
2023/09/03 02:58:48;;;;;;;;;;;;;;;13.96;100.00;102523.63;5014348;28;19912;-58
2023/09/03 03:01:15;;;;;;;;;;;;;;;13.96;100.00;102527.97;5010256;28;19913;-58
2023/09/03 03:03:40;;;;;;;;;;;;;;;13.96;100.00;102523.63;5021794;28;19905;-58
2023/09/03 03:06:06;;;;;;;;;;;;;;;13.95;100.00;102529.69;5024149;28;19905;-58
2023/09/03 03:08:31;;;;;;;;;;;;;;;13.98;100.00;102540.28;5024810;28;19905;-58
2023/09/03 03:11:10;;;;;;;;;;;;;;;13.95;100.00;102544.50;5019023;28;19913;-58
2023/09/03 03:13:35;;;;;;;;;;;;;;;13.95;100.00;102544.50;5013014;28;19909;-58
2023/09/03 03:16:04;;;;;;;;;;;;;;;13.92;100.00;102550.56;5025461;28;19917;-58
2023/09/03 03:18:29;;;;;;;;;;;;;;;13.89;100.00;102543.47;5006424;28;20037;-58
2023/09/03 03:21:03;;;;;;;;;;;;;;;13.89;100.00;102530.38;5010531;28;19909;-58
2023/09/03 03:23:28;;;;;;;;;;;;;;;13.86;100.00;102519.78;5011957;28;19940;-58
2023/09/03 03:25:53;;;;;;;;;;;;;;;13.80;100.00;102513.41;5024892;28;19963;-57
2023/09/03 03:28:18;;;;;;;;;;;;;;;13.67;100.00;102504.19;5019856;28;20136;-58
2023/09/03 03:30:43;;;;;;;;;;;;;;;13.54;100.00;102503.75;5019677;28;20196;-58
2023/09/03 03:33:09;;;;;;;;;;;;;;;13.51;100.00;102494.84;5018522;28;19916;-58
2023/09/03 03:35:35;;;;;;;;;;;;;;;13.51;100.00;102498.38;5025593;28;19913;-58
2023/09/03 03:38:00;;;;;;;;;;;;;;;13.45;100.00;102499.88;5025519;28;19902;-58
2023/09/03 03:40:25;;;;;;;;;;;;;;;13.42;100.00;102510.22;5024387;28;19912;-58
2023/09/03 03:42:51;;;;;;;;;;;;;;;13.41;100.00;102529.38;5023858;28;19902;-58
2023/09/03 03:45:16;;;;;;;;;;;;;;;13.43;100.00;102535.59;5025446;28;19905;-58
2023/09/03 03:47:42;;;;;;;;;;;;;;;13.43;100.00;102535.59;5024848;28;19909;-58
2023/09/03 03:50:07;;;;;;;;;;;;;;;13.43;100.00;102540.81;5022636;28;20154;-58
2023/09/03 03:52:32;;;;;;;;;;;;;;;13.41;100.00;102548.59;5005364;28;19906;-58
2023/09/03 03:54:58;;;;;;;;;;;;;;;13.41;100.00;102539.84;5014825;28;20191;-58
2023/09/03 03:57:23;;;;;;;;;;;;;;;13.35;100.00;102538.81;5025225;28;19972;-58
2023/09/03 03:59:48;;;;;;;;;;;;;;;13.30;100.00;102536.78;5023900;28;20150;-58
2023/09/03 04:02:13;;;;;;;;;;;;;;;13.29;100.00;102535.88;5024453;28;19905;-58
2023/09/03 04:04:38;;;;;;;;;;;;;;;13.30;100.00;102545.53;5014196;28;19906;-58
2023/09/03 04:07:04;;;;;;;;;;;;;;;13.31;100.00;102559.50;5005338;28;19917;-58
2023/09/03 04:09:30;;;;;;;;;;;;;;;13.29;100.00;102554.22;5018102;28;20144;-58
2023/09/03 04:11:55;;;;;;;;;;;;;;;13.30;100.00;102560.34;5024840;28;19952;-58
2023/09/03 04:14:20;;;;;;;;;;;;;;;13.31;100.00;102564.75;5016594;28;19906;-58
2023/09/03 04:16:46;;;;;;;;;;;;;;;13.30;100.00;102563.84;5004984;28;20013;-58
2023/09/03 04:19:11;;;;;;;;;;;;;;;13.32;100.00;102550.81;5014380;28;19912;-58
2023/09/03 04:21:36;;;;;;;;;;;;;;;13.34;100.00;102565.81;5024029;28;19920;-58
2023/09/03 04:24:02;;;;;;;;;;;;;;;13.33;100.00;102566.59;5018828;28;20132;-58
2023/09/03 04:26:27;;;;;;;;;;;;;;;13.34;100.00;102570.13;5013653;28;19902;-58
2023/09/03 04:28:52;;;;;;;;;;;;;;;13.33;100.00;102566.59;5014985;28;19913;-58
2023/09/03 04:31:18;;;;;;;;;;;;;;;13.33;100.00;102566.59;5012760;28;19913;-58
2023/09/03 04:33:43;;;;;;;;;;;;;;;13.33;100.00;102563.97;5017015;28;19910;-57
2023/09/03 04:36:09;;;;;;;;;;;;;;;13.33;100.00;102566.59;5016186;28;19905;-58
2023/09/03 04:38:34;;;;;;;;;;;;;;;13.33;100.00;102571.81;5023299;28;20506;-58
2023/09/03 04:41:04;;;;;;;;;;;;;;;13.33;100.00;102571.81;5022573;28;19937;-57
2023/09/03 04:43:29;;;;;;;;;;;;;;;13.31;100.00;102576.13;5021003;28;19936;-57
2023/09/03 04:45:55;;;;;;;;;;;;;;;13.31;100.00;102573.50;5004980;28;19913;-57
2023/09/03 04:48:21;;;;;;;;;;;;;;;13.31;100.00;102570.88;5008854;28;19905;-58
2023/09/03 04:50:46;;;;;;;;;;;;;;;13.28;100.00;102576.00;5024488;28;19977;-57
2023/09/03 04:53:14;;;;;;;;;;;;;;;13.26;100.00;102582.88;5023648;28;20067;-58
2023/09/03 04:55:40;;;;;;;;;;;;;;;13.27;100.00;102583.81;5023908;28;19912;-58
2023/09/03 04:58:05;;;;;;;;;;;;;;;13.25;100.00;102588.06;5007301;28;19924;-58
2023/09/03 05:00:31;;;;;;;;;;;;;;;13.26;100.00;102600.31;5004592;28;19937;-58
2023/09/03 05:02:56;;;;;;;;;;;;;;;13.25;100.00;102604.66;5004928;28;19924;-57
2023/09/03 05:05:22;;;;;;;;;;;;;;;13.25;100.00;102609.00;5024316;28;19902;-58
2023/09/03 05:07:47;;;;;;;;;;;;;;;13.24;100.00;102605.50;5024273;28;19902;-58
2023/09/03 05:10:13;;;;;;;;;;;;;;;13.25;100.00;102602.03;5024395;28;19902;-58
2023/09/03 05:12:40;;;;;;;;;;;;;;;13.25;100.00;102609.00;5024304;28;19928;-58
2023/09/03 05:15:06;;;;;;;;;;;;;;;13.26;100.00;102602.94;5023633;28;20094;-58
2023/09/03 05:17:32;;;;;;;;;;;;;;;13.26;100.00;102611.69;5024278;28;19908;-58
2023/09/03 05:19:57;;;;;;;;;;;;;;;13.28;100.00;102610.03;5024098;28;20110;-58
2023/09/03 05:22:22;;;;;;;;;;;;;;;13.27;100.00;102610.84;5024107;28;19931;-58
2023/09/03 05:24:47;;;;;;;;;;;;;;;13.28;100.00;102616.97;5020600;28;19925;-58
2023/09/03 05:27:13;;;;;;;;;;;;;;;13.28;100.00;102625.75;5023780;28;19921;-58
2023/09/03 05:29:38;;;;;;;;;;;;;;;13.29;100.00;102624.88;5017179;28;20143;-58
2023/09/03 05:32:03;;;;;;;;;;;;;;;13.31;100.00;102627.56;4999866;28;19917;-58
2023/09/03 05:34:28;;;;;;;;;;;;;;;13.31;100.00;102623.25;5022463;28;20162;-58
2023/09/03 05:36:54;;;;;;;;;;;;;;;13.32;100.00;102631.97;5016170;28;19913;-58
2023/09/03 05:39:19;;;;;;;;;;;;;;;13.33;100.00;102629.44;5008094;28;20055;-58
2023/09/03 05:41:44;;;;;;;;;;;;;;;13.37;100.00;102633.13;5016446;28;20147;-58
2023/09/03 05:44:11;;;;;;;;;;;;;;;13.38;100.00;102625.31;5015585;28;20060;-58
2023/09/03 05:46:36;;;;;;;;;;;;;;;13.40;100.00;102628.00;5009646;28;19902;-58
2023/09/03 05:49:02;;;;;;;;;;;;;;;13.41;100.00;102624.53;5010717;28;19906;-58
2023/09/03 05:51:27;;;;;;;;;;;;;;;13.44;100.00;102615.91;5005463;28;19909;-58
2023/09/03 05:53:53;;;;;;;;;;;;;;;13.45;100.00;102620.31;5016818;28;19960;-58
2023/09/03 05:56:19;;;;;;;;;;;;;;;13.45;100.00;102623.81;5010066;28;20139;-58
2023/09/03 05:58:44;;;;;;;;;;;;;;;13.49;100.00;102632.72;5016176;28;19910;-58
2023/09/03 06:01:10;;;;;;;;;;;;;;;13.51;100.00;102644.13;5020779;28;19925;-58
2023/09/03 06:03:35;;;;;;;;;;;;;;;13.54;100.00;102652.09;5025126;28;19912;-58
2023/09/03 06:06:04;;;;;;;;;;;;;;;13.57;100.00;102647.03;5012209;28;19902;-58
2023/09/03 06:08:33;;;;;;;;;;;;;;;13.60;100.00;102647.13;5025781;28;19910;-58
2023/09/03 06:10:59;;;;;;;;;;;;;;;13.63;100.00;102648.97;5020070;28;19913;-58
2023/09/03 06:13:25;;;;;;;;;;;;;;;13.66;100.00;102652.63;5018916;28;20030;-58
2023/09/03 06:15:50;;;;;;;;;;;;;;;13.69;100.00;102652.72;5007376;28;19905;-58
2023/09/03 06:18:16;;;;;;;;;;;;;;;13.71;100.00;102658.91;5024994;28;20041;-58
2023/09/03 06:20:41;;;;;;;;;;;;;;;13.74;100.00;102658.16;5019655;28;19917;-58
2023/09/03 06:23:07;;;;;;;;;;;;;;;13.77;100.00;102662.63;5025446;28;19901;-58
2023/09/03 06:25:32;;;;;;;;;;;;;;;13.80;100.00;102671.53;5023825;28;20158;-58
2023/09/03 06:27:57;;;;;;;;;;;;;;;13.83;100.00;102675.97;5018693;28;19969;-58
2023/09/03 06:30:22;;;;;;;;;;;;;;;13.85;100.00;102680.44;5006866;28;19905;-58
2023/09/03 06:32:48;;;;;;;;;;;;;;;13.88;100.00;102684.91;5025568;28;20199;-58
2023/09/03 06:35:13;;;;;;;;;;;;;;;13.90;100.00;102696.34;5015455;28;19926;-58
2023/09/03 06:37:39;;;;;;;;;;;;;;;13.94;100.00;102700.00;5009708;28;19905;-58
2023/09/03 06:40:04;;;;;;;;;;;;;;;13.95;100.00;102702.66;5016052;28;19909;-58
2023/09/03 06:42:29;;;;;;;;;;;;;;;13.97;100.00;102710.59;5000009;28;19905;-58
2023/09/03 06:44:55;;;;;;;;;;;;;;;13.99;100.00;102707.19;5020561;28;19906;-58
2023/09/03 06:47:20;;;;;;;;;;;;;;;14.03;100.00;102702.97;5018913;28;20123;-58
2023/09/03 06:49:45;;;;;;;;;;;;;;;14.06;100.00;102711.84;5025442;28;20108;-58
2023/09/03 06:52:10;;;;;;;;;;;;;;;14.07;100.00;102716.25;5026143;28;19905;-58
2023/09/03 06:54:36;;;;;;;;;;;;;;;14.08;100.00;102715.41;5026332;28;19905;-58
2023/09/03 06:57:01;;;;;;;;;;;;;;;14.12;100.00;102721.69;5025547;28;19901;-58
2023/09/03 06:59:26;;;;;;;;;;;;;;;14.17;100.00;102721.84;5026267;28;19901;-58
2023/09/03 07:01:51;;;;;;;;;;;;;;;14.21;100.00;102721.16;5026194;28;19904;-58
2023/09/03 07:04:16;;;;;;;;;;;;;;;14.25;100.00;102723.94;5026058;28;19943;-58
2023/09/03 07:06:41;;;;;;;;;;;;;;;14.29;100.00;102724.06;5025328;28;19909;-58
2023/09/03 07:09:07;;;;;;;;;;;;;;;14.33;100.00;102726.84;5025452;28;19909;-58
2023/09/03 07:11:33;;;;;;;;;;;;;;;14.36;100.00;102726.09;5024700;28;19948;-58
2023/09/03 07:13:58;;;;;;;;;;;;;;;14.40;100.00;102731.50;5025560;28;19952;-58
2023/09/03 07:16:23;;;;;;;;;;;;;;;14.43;100.00;102729.00;5024564;28;19917;-58
2023/09/03 07:18:48;;;;;;;;;;;;;;;14.48;100.00;102734.41;5023757;28;20115;-58
2023/09/03 07:21:13;;;;;;;;;;;;;;;14.53;100.00;102742.47;5015871;28;19947;-58
2023/09/03 07:23:39;;;;;;;;;;;;;;;14.58;100.00;102733.03;5007270;28;20096;-58
2023/09/03 07:26:05;;;;;;;;;;;;;;;14.63;100.00;102741.09;5024333;28;20098;-58
2023/09/03 07:28:30;;;;;;;;;;;;;;;14.67;100.00;102743.91;5024844;28;20093;-58
2023/09/03 07:30:56;;;;;;;;;;;;;;;14.73;100.00;102735.34;5002798;28;20180;-58
2023/09/03 07:33:21;;;;;;;;;;;;;;;14.77;100.00;102740.78;5019820;28;19909;-58
2023/09/03 07:35:46;;;;;;;;;;;;;;;14.84;100.00;102747.13;5014690;28;19905;-58
2023/09/03 07:38:11;;;;;;;;;;;;;;;14.92;100.00;102753.56;5007680;28;19905;-58
2023/09/03 07:40:39;;;;;;;;;;;;;;;14.99;100.00;102756.41;5012052;28;20209;-58
2023/09/03 07:43:05;;;;;;;;;;;;;;;15.07;100.00;102758.47;5023079;28;19905;-58
2023/09/03 07:45:30;;;;;;;;;;;;;;;15.13;100.00;102755.19;5021830;28;19912;-58
2023/09/03 07:47:55;;;;;;;;;;;;;;;15.20;100.00;102762.44;5019202;28;19905;-58
2023/09/03 07:50:20;;;;;;;;;;;;;;;15.27;100.00;102771.44;5013197;28;19912;-58
2023/09/03 07:52:46;;;;;;;;;;;;;;;15.34;100.00;102765.56;5021968;28;19988;-58
2023/09/03 07:55:11;;;;;;;;;;;;;;;15.43;100.00;102765.84;5009517;28;19964;-58
2023/09/03 07:57:36;;;;;;;;;;;;;;;15.53;100.00;102760.94;5007184;28;19905;-58
2023/09/03 08:00:01;;;;;;;;;;;;;;;15.62;100.00;102762.13;5013109;28;19980;-58
2023/09/03 08:02:26;;;;;;;;;;;;;;;15.73;100.00;102754.59;4996251;28;19912;-58
2023/09/03 08:04:52;;;;;;;;;;;;;;;15.81;100.00;102763.69;5024429;28;19981;-58
2023/09/03 08:07:17;;;;;;;;;;;;;;;15.92;100.00;102760.50;5023159;28;19909;-58
2023/09/03 08:09:42;;;;;;;;;;;;;;;16.02;100.00;102752.06;5021540;28;20036;-58
2023/09/03 08:12:07;;;;;;;;;;;;;;;16.11;100.00;102754.09;5016055;28;20144;-58
2023/09/03 08:14:32;;;;;;;;;;;;;;;16.15;100.00;102748.09;5013951;28;19906;-59
2023/09/03 08:19:34;;;;;;;;;;;;;;;16.39;100.00;102752.31;5105238;22;19929;-58
2023/09/03 08:22:00;;;;;;;;;;;;;;;16.54;100.00;102751.88;5026314;28;19921;-58
2023/09/03 08:24:26;;;;;;;;;;;;;;;16.65;100.00;102750.44;5027035;28;19917;-58
2023/09/03 08:26:51;;;;;;;;;;;;;;;16.76;100.00;102746.38;5025163;28;20472;-58
2023/09/03 08:29:16;;;;;;;;;;;;;;;16.90;100.00;102751.19;5019690;28;19921;-59
2023/09/03 08:31:42;;;;;;;;;;;;;;;17.01;100.00;102750.63;5025017;28;20003;-58
2023/09/03 08:34:07;;;;;;;;;;;;;;;17.15;100.00;102744.84;5027808;28;19921;-58
2023/09/03 08:36:32;;;;;;;;;;;;;;;17.30;100.00;102747.00;5018450;28;20407;-58
2023/09/03 08:38:57;;;;;;;;;;;;;;;17.45;100.00;102746.50;5033457;28;19920;-58
2023/09/03 08:41:23;;;;;;;;;;;;;;;17.54;100.00;102749.38;5033334;28;19913;-58
2023/09/03 08:43:53;;;;;;;;;;;;;;;17.69;100.00;102755.03;5040910;28;19913;-58
2023/09/03 08:46:19;;;;;;;;;;;;;;;17.86;100.00;102766.00;5030349;28;19929;-59
2023/09/03 08:48:47;;;;;;;;;;;;;;;18.01;100.00;102756.69;5040350;28;19984;-58
2023/09/03 08:51:12;;;;;;;;;;;;;;;18.18;100.00;102759.72;5033492;28;19913;-59
2023/09/03 08:53:38;;;;;;;;;;;;;;;18.28;100.00;102769.63;5032846;28;19944;-59
2023/09/03 08:56:04;;;;;;;;;;;;;;;18.44;100.00;102770.88;5030806;28;19929;-59
2023/09/03 08:58:29;;;;;;;;;;;;;;;18.64;100.00;102762.47;5029488;28;19936;-59
2023/09/03 09:00:55;;;;;;;;;;;;;;;18.78;100.00;102771.56;5039483;28;19971;-59
2023/09/03 09:03:24;;;;;;;;;;;;;;;18.87;100.00;102766.53;5041375;28;19909;-58
2023/09/03 09:05:50;;;;;;;;;;;;;;;19.01;100.00;102768.53;5033118;28;19996;-58
2023/09/03 09:08:16;;;;;;;;;;;;;;;19.11;100.00;102771.38;5042540;28;19914;-59
2023/09/03 09:10:50;;;;;;;;;;;;;;;19.20;100.00;102754.78;5038436;28;19963;-59
2023/09/03 09:13:18;;;;;;;;;;;;;;;19.29;100.00;102760.28;5037728;28;20077;-59
2023/09/03 09:15:44;;;;;;;;;;;;;;;19.39;100.00;102761.34;5039303;28;19937;-59
2023/09/03 09:18:10;;;;;;;;;;;;;;;19.49;100.00;102769.41;5035068;28;19914;-59
2023/09/03 09:20:38;;;;;;;;;;;;;;;19.57;100.00;102766.03;5045402;28;20166;-59
2023/09/03 09:23:04;;;;;;;;;;;;;;;19.65;99.44;102766.16;5046015;28;20083;-59
2023/09/03 09:25:30;;;;;;;;;;;;;;;19.68;99.51;102763.56;5044633;28;19936;-59
2023/09/03 09:27:56;;;;;;;;;;;;;;;19.72;97.27;102759.22;5036955;28;19909;-59
2023/09/03 09:30:24;;;;;;;;;;;;;;;19.74;99.79;102753.09;5038349;28;19917;-59
2023/09/03 09:33:01;;;;;;;;;;;;;;;19.89;100.00;102752.47;5036363;28;19960;-59
2023/09/03 09:35:27;;;;;;;;;;;;;;;20.12;100.00;102759.88;5039107;28;19915;-59
2023/09/03 09:37:52;;;;;;;;;;;;;;;20.24;99.97;102760.03;5045764;28;20122;-59
2023/09/03 09:40:27;;;;;;;;;;;;;;;20.41;99.20;102754.09;5042233;28;19944;-59
2023/09/03 09:42:55;;;;;;;;;;;;;;;20.51;99.82;102756.00;5044500;28;19909;-59
2023/09/03 09:45:20;;;;;;;;;;;;;;;20.56;100.00;102751.63;5041351;28;20126;-59
2023/09/03 09:47:47;;;;;;;;;;;;;;;20.56;98.66;102748.09;5046474;28;20185;-59
2023/09/03 09:50:12;;;;;;;;;;;;;;;20.55;97.62;102752.53;5043441;28;20178;-59
2023/09/03 09:52:37;;;;;;;;;;;;;;;20.54;96.62;102747.19;5046716;28;19914;-59
2023/09/03 09:55:03;;;;;;;;;;;;;;;20.55;97.74;102735.72;5042917;28;20074;-59
2023/09/03 09:57:29;;;;;;;;;;;;;;;20.56;95.25;102737.50;5040443;28;19968;-59
2023/09/03 09:59:55;;;;;;;;;;;;;;;20.58;95.65;102738.41;5044617;28;19956;-59
2023/09/03 10:02:21;;;;;;;;;;;;;;;20.65;96.76;102740.25;5036724;28;20003;-59
2023/09/03 10:04:47;;;;;;;;;;;;;;;20.74;96.69;102739.50;5034936;28;19920;-59
2023/09/03 10:07:13;;;;;;;;;;;;;;;20.84;96.28;102741.38;5040815;28;19909;-59
2023/09/03 10:09:39;;;;;;;;;;;;;;;20.88;96.16;102747.63;5045190;28;19913;-59
2023/09/03 10:12:05;;;;;;;;;;;;;;;20.94;95.98;102745.94;5043680;28;19913;-59
2023/09/03 10:14:30;;;;;;;;;;;;;;;21.01;96.46;102737.19;5043860;28;20147;-59
2023/09/03 10:16:59;;;;;;;;;;;;;;;21.22;95.72;102738.28;5032313;28;19940;-59
2023/09/03 10:19:26;;;;;;;;;;;;;;;21.26;94.37;102734.78;5043262;28;19952;-59
2023/09/03 10:21:54;;;;;;;;;;;;;;;21.28;93.60;102738.31;5036519;28;20122;-59
2023/09/03 10:24:20;;;;;;;;;;;;;;;21.43;93.51;102739.34;5037774;28;19913;-60
2023/09/03 10:26:49;;;;;;;;;;;;;;;21.53;93.62;102730.59;5042786;28;19917;-60
2023/09/03 10:29:19;;;;;;;;;;;;;;;21.58;93.05;102733.28;5044777;28;20294;-59
2023/09/03 10:31:44;;;;;;;;;;;;;;;21.69;93.50;102742.22;5044124;28;20163;-59
2023/09/03 10:34:10;;;;;;;;;;;;;;;21.86;92.05;102732.63;5037974;28;19959;-59
2023/09/03 10:36:36;;;;;;;;;;;;;;;21.87;89.69;102733.53;5040115;28;19921;-59
2023/09/03 10:39:20;;;;;;;;;;;;;;;21.87;89.15;102742.38;5042012;28;19933;-59
2023/09/03 10:41:46;;;;;;;;;;;;;;;21.91;89.86;102739.72;5040069;28;19913;-59
2023/09/03 10:44:15;;;;;;;;;;;;;;;22.02;87.59;102743.34;5040264;28;19933;-59
2023/09/03 10:46:58;;;;;;;;;;;;;;;22.17;86.80;102738.13;5043865;28;19913;-60
2023/09/03 10:49:23;;;;;;;;;;;;;;;22.35;87.45;102737.38;5044536;28;19913;-60
2023/09/03 10:51:49;;;;;;;;;;;;;;;22.43;83.78;102741.81;5041904;28;19952;-60
2023/09/03 10:54:18;;;;;;;;;;;;;;;22.38;77.41;102742.69;5044350;28;19913;-60
2023/09/03 10:57:16;;;;;;;;;;;;;;;22.33;78.47;102744.44;5029935;28;19917;-59
2023/09/03 11:00:05;;;;;;;;;;;;;;;22.32;79.63;102741.72;4987547;28;20093;-60
2023/09/03 11:02:31;;;;;;;;;;;;;;;22.45;82.86;102737.41;5034111;28;20229;-60
2023/09/03 11:05:09;;;;;;;;;;;;;;;22.63;83.04;102742.78;5039022;28;19913;-60
2023/09/03 11:07:35;;;;;;;;;;;;;;;22.72;83.66;102744.59;5041675;28;19914;-59
2023/09/03 11:10:19;;;;;;;;;;;;;;;22.74;80.30;102740.19;5044289;28;19935;-59
2023/09/03 11:12:45;;;;;;;;;;;;;;;22.93;81.65;102746.44;5040965;28;19929;-60
2023/09/03 11:15:10;;;;;;;;;;;;;;;22.93;71.18;102742.00;5043203;28;19913;-59
2023/09/03 11:17:35;;;;;;;;;;;;;;;22.91;74.27;102742.88;5043207;28;20042;-60
2023/09/03 11:20:00;;;;;;;;;;;;;;;22.92;79.97;102750.84;5036469;28;19922;-60
2023/09/03 11:22:27;;;;;;;;;;;;;;;22.99;77.31;102749.09;5024362;28;20155;-60
2023/09/03 11:24:52;;;;;;;;;;;;;;;23.10;76.43;102743.78;5040724;28;20044;-60
2023/09/03 11:27:17;;;;;;;;;;;;;;;23.19;80.01;102745.63;5032367;28;19940;-60
2023/09/03 11:29:42;;;;;;;;;;;;;;;23.28;77.28;102740.31;5041699;28;19913;-60
2023/09/03 11:32:08;;;;;;;;;;;;;;;23.37;80.56;102745.63;5042014;28;20048;-60
2023/09/03 11:34:33;;;;;;;;;;;;;;;23.28;68.40;102742.97;5043241;28;19917;-60
2023/09/03 11:36:58;;;;;;;;;;;;;;;22.98;72.92;102734.03;5043184;28;19944;-60
2023/09/03 11:39:23;;;;;;;;;;;;;;;22.97;78.12;102734.00;5038063;28;19928;-60
2023/09/03 11:41:48;;;;;;;;;;;;;;;23.11;76.67;102739.41;5042205;28;19960;-60
2023/09/03 11:44:19;;;;;;;;;;;;;;;23.31;79.26;102737.66;5043658;28;19951;-60
2023/09/03 11:47:00;;;;;;;;;;;;;;;23.44;79.59;102738.53;5042453;28;19913;-60
2023/09/03 11:49:26;;;;;;;;;;;;;;;23.50;72.02;102735.00;5034848;28;19945;-60
2023/09/03 11:51:52;;;;;;;;;;;;;;;23.43;78.29;102742.09;5037708;28;19955;-60
2023/09/03 11:54:26;;;;;;;;;;;;;;;23.42;76.77;102743.00;5040705;28;19936;-60
2023/09/03 11:56:57;;;;;;;;;;;;;;;23.44;78.47;102744.75;5032862;28;19929;-60
2023/09/03 11:59:22;;;;;;;;;;;;;;;23.57;79.61;102744.75;5035608;28;19928;-60
2023/09/03 12:01:47;;;;;;;;;;;;;;;23.64;69.64;102741.19;5039442;28;19913;-60
2023/09/03 12:04:13;;;;;;;;;;;;;;;23.61;72.73;102751.84;5040061;28;19933;-60
2023/09/03 12:06:38;;;;;;;;;;;;;;;23.61;70.49;102747.41;5041764;28;19952;-60
2023/09/03 12:09:03;;;;;;;;;;;;;;;23.78;74.33;102747.41;5039848;28;19925;-60
2023/09/03 12:11:29;;;;;;;;;;;;;;;24.06;74.25;102746.50;5035836;28;19919;-60
2023/09/03 12:13:54;;;;;;;;;;;;;;;24.08;67.72;102747.38;5030135;28;19943;-60
2023/09/03 12:16:22;;;;;;;;;;;;;;;24.00;71.77;102749.16;5041811;28;20062;-60
2023/09/03 12:18:57;;;;;;;;;;;;;;;24.14;70.92;102747.34;5040397;28;19920;-60
2023/09/03 12:21:32;;;;;;;;;;;;;;;24.36;70.70;102748.19;5035668;28;20008;-60
2023/09/03 12:23:58;;;;;;;;;;;;;;;24.60;73.10;102743.66;5038930;28;20147;-60
2023/09/03 12:26:23;;;;;;;;;;;;;;;24.58;73.35;102746.31;5036935;28;19916;-60